createdAt,value
2023-05-25T00:02:24.525Z,101175.72
2023-05-25T00:05:14.365Z,101154.97
2023-05-25T00:08:02.718Z,101090.94
2023-05-25T00:10:50.989Z,101062.81
2023-05-25T00:13:40.299Z,101047.88
2023-05-25T00:16:28.386Z,101035.13
2023-05-25T00:19:18.938Z,101025.91
2023-05-25T00:22:07.710Z,101027.94
2023-05-25T00:24:55.770Z,101019.53
2023-05-25T00:27:43.791Z,101013.34
2023-05-25T00:30:31.815Z,101004.34
2023-05-25T00:33:19.914Z,100990.16
2023-05-25T00:36:09.862Z,100981.16
2023-05-25T00:38:58.803Z,100969.34
2023-05-25T00:41:48.372Z,100981.16
2023-05-25T00:44:36.474Z,100982.59
2023-05-25T00:47:24.969Z,100981.03
2023-05-25T00:50:17.218Z,100974.88
2023-05-25T00:53:07.094Z,100986.84
2023-05-25T00:56:03.302Z,100996.25
2023-05-25T00:58:54.802Z,101004.06
2023-05-25T01:01:44.726Z,100992.28
2023-05-25T01:04:35.036Z,100981.03
2023-05-25T01:07:25.115Z,100966.06
2023-05-25T01:10:16.624Z,100952.47
2023-05-25T01:13:05.981Z,100946.69
2023-05-25T01:15:54.486Z,100928.16
2023-05-25T01:18:42.825Z,100920.97
2023-05-25T01:21:42.006Z,100910.19
2023-05-25T01:24:36.463Z,100911.84
2023-05-25T01:27:28.061Z,100899.66
2023-05-25T01:30:18.002Z,100887.13
2023-05-25T01:33:06.429Z,100874.50
2023-05-25T01:35:54.636Z,100869.19
2023-05-25T01:38:44.246Z,100863.00
2023-05-25T01:41:32.478Z,100853.66
2023-05-25T01:44:20.973Z,100841.91
2023-05-25T01:47:16.683Z,100705.31
2023-05-25T01:50:08.988Z,100619.38
2023-05-25T01:53:00.853Z,100593.28
2023-05-25T01:55:56.257Z,100564.94
2023-05-25T01:58:46.420Z,100553.81
2023-05-25T02:01:36.555Z,100548.50
2023-05-25T02:04:25.027Z,100542.72
2023-05-25T02:07:13.130Z,100542.97
2023-05-25T02:10:01.245Z,100543.63
2023-05-25T02:12:50.889Z,100538.50
2023-05-25T02:15:38.942Z,100541.50
2023-05-25T02:18:27.770Z,100531.00
2023-05-25T02:21:16.360Z,100494.59
2023-05-25T02:24:04.753Z,100447.59
2023-05-25T02:26:52.970Z,100418.88
2023-05-25T02:29:42.528Z,100399.81
2023-05-25T02:32:31.431Z,100400.31
2023-05-25T02:35:19.535Z,100397.38
2023-05-25T02:38:07.544Z,100389.03
2023-05-25T02:40:55.657Z,100381.72
2023-05-25T02:43:43.684Z,100372.72
2023-05-25T02:46:33.637Z,100357.09
2023-05-25T02:49:21.750Z,100344.38
2023-05-25T02:52:09.860Z,100327.50
2023-05-25T02:54:57.927Z,100326.34
2023-05-25T02:57:45.934Z,100330.38
2023-05-25T03:00:34.020Z,100330.69
2023-05-25T03:03:23.451Z,100322.56
2023-05-25T03:06:12.956Z,100308.97
2023-05-25T03:09:01.896Z,100313.44
2023-05-25T03:11:49.978Z,100307.69
2023-05-25T03:14:37.955Z,100296.75
2023-05-25T03:17:26.328Z,100285.41
2023-05-25T03:20:16.740Z,100267.13
2023-05-25T03:23:04.768Z,100270.94
2023-05-25T03:25:52.799Z,100258.22
2023-05-25T03:28:40.781Z,100252.47
2023-05-25T03:31:28.768Z,100240.75
2023-05-25T03:34:17.655Z,100240.19
2023-05-25T03:37:07.123Z,100234.22
2023-05-25T03:39:55.182Z,100224.53
2023-05-25T03:42:43.155Z,100212.34
2023-05-25T03:45:31.314Z,100206.72
2023-05-25T03:48:19.319Z,100192.09
2023-05-25T03:51:07.494Z,100195.72
2023-05-25T03:53:56.930Z,100169.69
2023-05-25T03:56:44.900Z,100138.16
2023-05-25T03:59:32.959Z,100131.63
2023-05-25T04:02:21.454Z,100029.91
2023-05-25T04:05:10.522Z,100016.97
2023-05-25T04:07:59.194Z,100009.09
2023-05-25T04:10:49.024Z,99992.97
2023-05-25T04:13:37.017Z,99974.06
2023-05-25T04:16:26.072Z,99959.22
2023-05-25T04:19:14.134Z,99960.22
2023-05-25T04:22:02.110Z,99957.06
2023-05-25T04:24:50.116Z,99951.47
2023-05-25T04:27:39.551Z,99938.25
2023-05-25T04:30:28.271Z,99930.81
2023-05-25T04:33:17.884Z,99915.81
2023-05-25T04:36:06.192Z,99905.44
2023-05-25T04:38:54.792Z,99905.84
2023-05-25T04:41:43.073Z,99900.66
2023-05-25T04:44:32.495Z,99883.19
2023-05-25T04:47:20.903Z,99880.91
2023-05-25T04:50:10.223Z,99874.72
2023-05-25T04:52:58.244Z,99872.19
2023-05-25T04:55:46.851Z,99887.38
2023-05-25T04:58:35.000Z,99879.13
2023-05-25T05:01:24.394Z,99869.94
2023-05-25T05:04:12.764Z,99867.75
2023-05-25T05:07:00.944Z,99870.19
2023-05-25T05:09:48.994Z,99871.16
2023-05-25T05:12:37.082Z,99868.63
2023-05-25T05:15:25.030Z,99855.50
2023-05-25T05:18:14.500Z,99848.34
2023-05-25T05:21:02.760Z,99861.22
2023-05-25T05:23:51.249Z,99856.47
2023-05-25T05:26:55.783Z,99862.25
2023-05-25T05:29:46.089Z,99867.25
2023-05-25T05:32:34.272Z,99872.34
2023-05-25T05:35:23.793Z,99877.72
2023-05-25T05:38:11.937Z,99888.72
2023-05-25T05:41:00.069Z,99902.75
2023-05-25T05:43:50.984Z,99917.09
2023-05-25T05:46:39.161Z,99921.13
2023-05-25T05:49:27.701Z,99932.88
2023-05-25T05:52:17.086Z,99933.00
2023-05-25T05:55:06.395Z,99946.91
2023-05-25T05:57:54.890Z,99962.97
2023-05-25T06:00:42.939Z,99980.59
2023-05-25T06:03:31.006Z,100022.03
2023-05-25T06:06:19.417Z,100064.66
2023-05-25T06:09:08.981Z,100081.97
2023-05-25T06:11:57.119Z,100108.47
2023-05-25T06:14:49.272Z,100134.47
2023-05-25T06:17:37.405Z,100164.31
2023-05-25T06:20:25.664Z,100184.31
2023-05-25T06:23:14.164Z,100239.22
2023-05-25T06:26:06.382Z,100275.13
2023-05-25T06:28:54.565Z,100325.66
2023-05-25T06:31:42.691Z,100357.94
2023-05-25T06:34:31.029Z,100412.56
2023-05-25T06:37:19.118Z,100438.22
2023-05-25T06:40:09.453Z,100490.00
2023-05-25T06:42:59.047Z,100561.41
2023-05-25T06:45:51.111Z,100609.03
2023-05-25T06:48:40.490Z,100670.31
2023-05-25T06:51:28.895Z,100759.47
2023-05-25T06:54:16.883Z,100809.94
2023-05-25T06:57:04.976Z,100860.81
2023-05-25T06:59:54.377Z,100925.28
2023-05-25T07:02:42.593Z,100992.75
2023-05-25T07:05:30.752Z,101038.91
2023-05-25T07:08:18.858Z,101036.94
2023-05-25T07:11:10.466Z,101074.38
2023-05-25T07:13:58.490Z,101136.72
2023-05-25T07:16:48.237Z,101212.28
2023-05-25T07:19:36.285Z,101264.47
2023-05-25T07:22:24.437Z,101349.22
2023-05-25T07:25:12.420Z,101383.84
2023-05-25T07:28:00.436Z,101388.19
2023-05-25T07:30:48.432Z,101419.72
2023-05-25T07:33:37.883Z,101442.94
2023-05-25T07:36:25.918Z,101458.59
2023-05-25T07:39:14.156Z,101459.44
2023-05-25T07:42:02.674Z,101446.31
2023-05-25T07:44:50.860Z,101444.66
2023-05-25T07:47:38.970Z,101491.97
2023-05-25T07:50:31.061Z,101554.44
2023-05-25T07:53:19.872Z,101607.97
2023-05-25T07:56:10.658Z,101623.66
2023-05-25T07:59:00.073Z,101641.25
2023-05-25T08:01:48.399Z,101698.16
2023-05-25T08:04:37.475Z,101703.50
2023-05-25T08:07:27.014Z,101698.94
2023-05-25T08:10:15.058Z,101689.75
2023-05-25T08:13:03.169Z,101731.06
2023-05-25T08:15:51.153Z,101722.16
2023-05-25T08:18:39.321Z,101722.44
2023-05-25T08:21:27.338Z,101701.06
2023-05-25T08:24:17.519Z,101710.94
2023-05-25T08:27:06.106Z,101701.25
2023-05-25T08:29:54.098Z,101787.63
2023-05-25T08:32:42.223Z,101816.59
2023-05-25T08:35:30.362Z,101769.31
2023-05-25T08:38:18.368Z,101770.69
2023-05-25T08:41:08.421Z,101747.19
2023-05-25T08:43:56.791Z,101746.84
2023-05-25T08:46:48.289Z,101748.56
2023-05-25T08:49:39.382Z,101715.69
2023-05-25T08:52:33.498Z,101725.63
2023-05-25T08:55:23.774Z,101741.03
2023-05-25T08:58:18.468Z,101738.81
2023-05-25T09:01:12.122Z,101761.34
2023-05-25T09:04:02.220Z,101764.00
2023-05-25T09:07:02.059Z,101777.44
2023-05-25T09:09:58.622Z,101798.75
2023-05-25T09:12:48.142Z,101791.22
2023-05-25T09:15:37.532Z,101799.34
2023-05-25T09:18:25.621Z,101794.00
2023-05-25T09:21:13.762Z,101784.19
2023-05-25T09:24:02.483Z,101803.84
2023-05-25T09:26:50.802Z,101823.16
2023-05-25T09:29:38.944Z,101818.47
2023-05-25T09:32:28.312Z,101843.97
2023-05-25T09:35:16.579Z,101880.97
2023-05-25T09:38:04.783Z,101937.63
2023-05-25T09:40:53.488Z,101947.25
2023-05-25T09:43:44.937Z,101922.09
2023-05-25T09:46:44.732Z,101925.72
2023-05-25T09:49:34.182Z,101946.66
2023-05-25T09:52:22.160Z,101979.13
2023-05-25T09:55:12.601Z,101959.72
2023-05-25T09:58:00.577Z,102010.06
2023-05-25T10:00:48.593Z,102037.97
2023-05-25T10:03:36.600Z,102041.97
2023-05-25T10:06:26.582Z,102088.13
2023-05-25T10:09:16.674Z,102129.81
2023-05-25T10:12:05.286Z,102160.56
2023-05-25T10:14:54.553Z,102140.38
2023-05-25T10:17:46.615Z,102138.81
2023-05-25T10:20:35.394Z,102129.22
2023-05-25T10:23:25.826Z,102029.59
2023-05-25T10:26:17.262Z,101931.69
2023-05-25T10:29:05.768Z,101833.88
2023-05-25T10:31:55.247Z,101768.88
2023-05-25T10:34:43.387Z,101753.19
2023-05-25T10:37:32.595Z,101784.53
2023-05-25T10:40:22.939Z,101795.91
2023-05-25T10:43:11.466Z,101800.34
2023-05-25T10:45:59.917Z,101796.31
2023-05-25T10:48:49.452Z,101793.00
2023-05-25T10:51:43.702Z,101779.41
2023-05-25T10:54:32.829Z,101761.00
2023-05-25T10:57:23.190Z,101742.91
2023-05-25T11:00:15.158Z,101731.41
2023-05-25T11:03:03.476Z,101778.91
2023-05-25T11:05:51.975Z,101851.53
2023-05-25T11:08:51.039Z,101875.47
2023-05-25T11:12:03.772Z,101941.69
2023-05-25T11:15:15.176Z,102011.88
2023-05-25T11:18:03.283Z,102003.94
2023-05-25T11:20:51.504Z,102004.91
2023-05-25T11:23:53.547Z,102025.47
2023-05-25T11:26:54.779Z,102049.13
2023-05-25T11:29:43.830Z,102049.38
2023-05-25T11:32:33.341Z,102017.63
2023-05-25T11:35:22.825Z,102049.38
2023-05-25T11:38:11.138Z,102047.56
2023-05-25T11:40:59.130Z,102072.94
2023-05-25T11:43:48.823Z,102103.44
2023-05-25T11:46:38.734Z,102117.25
2023-05-25T11:49:28.984Z,102114.31
2023-05-25T11:52:19.061Z,102111.72
2023-05-25T11:55:12.718Z,102129.22
2023-05-25T11:58:00.708Z,102109.97
2023-05-25T12:00:48.670Z,102132.94
2023-05-25T12:03:36.797Z,102175.72
2023-05-25T12:06:27.938Z,102169.06
2023-05-25T12:09:20.951Z,102221.97
2023-05-25T12:12:09.461Z,102259.88
2023-05-25T12:14:59.012Z,102283.47
2023-05-25T12:17:47.471Z,102279.06
2023-05-25T12:20:38.644Z,102312.97
2023-05-25T12:23:28.406Z,102353.63
2023-05-25T12:26:18.995Z,102367.63
2023-05-25T12:29:10.127Z,102388.97
2023-05-25T12:32:03.769Z,102413.78
2023-05-25T12:34:51.803Z,102474.41
2023-05-25T12:37:40.613Z,102507.44
2023-05-25T12:40:30.032Z,102517.66
2023-05-25T12:43:18.168Z,102531.84
2023-05-25T12:46:06.436Z,102588.03
2023-05-25T12:48:55.003Z,102572.28
2023-05-25T12:51:43.057Z,102602.97
2023-05-25T12:54:40.866Z,102566.16
2023-05-25T12:57:36.304Z,102549.97
2023-05-25T13:00:26.549Z,102550.63
2023-05-25T13:03:14.601Z,102542.72
2023-05-25T13:06:03.798Z,102591.91
2023-05-25T13:08:51.857Z,102611.69
2023-05-25T13:11:39.917Z,102588.56
2023-05-25T13:14:30.243Z,102569.25
2023-05-25T13:17:18.222Z,102533.31
2023-05-25T13:20:07.199Z,102532.91
2023-05-25T13:22:56.571Z,102530.16
2023-05-25T13:25:45.103Z,102528.03
2023-05-25T13:28:33.151Z,102499.19
2023-05-25T13:31:22.553Z,102501.06
2023-05-25T13:34:10.613Z,102539.75
2023-05-25T13:36:58.519Z,102565.41
2023-05-25T13:39:46.493Z,102574.22
2023-05-25T13:42:34.451Z,102522.59
2023-05-25T13:45:22.663Z,102522.31
2023-05-25T13:48:12.085Z,102539.53
2023-05-25T13:51:00.469Z,102632.94
2023-05-25T13:53:49.142Z,102647.22
2023-05-25T13:56:37.254Z,102637.84
2023-05-25T13:59:25.359Z,102634.53
2023-05-25T14:02:13.353Z,102647.66
2023-05-25T14:05:02.760Z,102635.03
2023-05-25T14:07:52.121Z,102653.84
2023-05-25T14:10:40.799Z,102657.22
2023-05-25T14:13:28.812Z,102660.69
2023-05-25T14:16:16.832Z,102686.00
2023-05-25T14:19:05.788Z,102685.19
2023-05-25T14:24:46.063Z,102746.06
2023-05-25T14:27:34.155Z,102752.13
2023-05-25T14:30:22.137Z,102736.09
2023-05-25T14:33:14.117Z,102741.47
2023-05-25T14:36:02.287Z,102820.47
2023-05-25T14:38:51.732Z,102762.53
2023-05-25T14:41:39.717Z,102624.69
2023-05-25T14:44:27.760Z,102682.94
2023-05-25T14:47:15.799Z,102702.16
2023-05-25T14:50:03.953Z,102690.22
2023-05-25T14:52:52.154Z,102698.81
2023-05-25T14:55:41.821Z,102723.09
2023-05-25T14:58:32.172Z,102791.25
2023-05-25T15:01:20.863Z,102814.84
2023-05-25T15:04:10.188Z,102790.44
2023-05-25T15:06:58.286Z,102801.09
2023-05-25T15:09:46.354Z,102748.56
2023-05-25T15:12:36.000Z,102735.63
2023-05-25T15:15:24.018Z,102749.22
2023-05-25T15:18:12.117Z,102743.03
2023-05-25T15:21:00.160Z,102731.13
2023-05-25T15:23:48.214Z,102742.25
2023-05-25T15:26:36.244Z,102738.19
2023-05-25T15:29:26.370Z,102729.56
2023-05-25T15:32:17.691Z,102760.84
2023-05-25T15:35:06.408Z,102733.00
2023-05-25T15:37:54.448Z,102750.34
2023-05-25T15:40:43.658Z,102774.72
2023-05-25T15:43:31.657Z,102754.50
2023-05-25T15:46:21.187Z,102765.00
2023-05-25T15:49:12.405Z,102789.25
2023-05-25T15:52:00.641Z,102760.03
2023-05-25T15:54:49.142Z,102791.50
2023-05-25T15:57:37.265Z,102773.72
2023-05-25T16:00:25.870Z,102793.28
2023-05-25T16:03:15.547Z,102813.66
2023-05-25T16:06:03.617Z,102826.13
2023-05-25T16:08:51.682Z,102817.47
2023-05-25T16:11:39.632Z,102838.81
2023-05-25T16:14:27.708Z,102843.06
2023-05-25T16:17:15.824Z,102848.09
2023-05-25T16:20:07.194Z,102871.25
2023-05-25T16:22:55.259Z,102842.84
2023-05-25T16:25:43.600Z,102893.22
2023-05-25T16:28:31.793Z,102899.66
2023-05-25T16:31:19.902Z,102867.66
2023-05-25T16:34:08.165Z,102892.78
2023-05-25T16:36:57.740Z,102859.97
2023-05-25T16:39:45.762Z,102880.19
2023-05-25T16:42:33.916Z,102814.03
2023-05-25T16:45:22.212Z,102811.63
2023-05-25T16:48:10.302Z,102834.75
2023-05-25T16:50:58.419Z,102812.41
2023-05-25T16:53:47.845Z,102813.78
2023-05-25T16:56:35.981Z,102811.41
2023-05-25T16:59:24.102Z,102778.78
2023-05-25T17:02:12.139Z,102834.72
2023-05-25T17:05:00.237Z,102820.81
2023-05-25T17:07:48.294Z,102829.22
2023-05-25T17:10:37.742Z,102794.63
2023-05-25T17:13:26.064Z,102759.81
2023-05-25T17:16:14.134Z,102748.16
2023-05-25T17:19:02.266Z,102746.56
2023-05-25T17:21:50.545Z,102708.09
2023-05-25T17:24:38.619Z,102713.84
2023-05-25T17:27:28.062Z,102657.75
2023-05-25T17:30:16.391Z,102648.09
2023-05-25T17:33:04.574Z,102625.34
2023-05-25T17:35:53.530Z,102587.94
2023-05-25T17:38:43.490Z,102550.56
2023-05-25T17:41:31.477Z,102496.66
2023-05-25T17:44:21.313Z,102476.97
2023-05-25T17:47:11.172Z,102459.28
2023-05-25T17:49:59.498Z,102424.53
2023-05-25T17:52:47.732Z,102383.13
2023-05-25T17:55:36.057Z,102353.38
2023-05-25T17:58:24.133Z,102348.16
2023-05-25T18:01:13.797Z,102349.00
2023-05-25T18:04:02.181Z,102331.91
2023-05-25T18:06:51.858Z,102311.84
2023-05-25T18:09:40.361Z,102307.41
2023-05-25T18:12:28.604Z,102288.16
2023-05-25T18:15:16.666Z,102322.88
2023-05-25T18:18:08.354Z,102392.56
2023-05-25T18:20:56.574Z,102460.28
2023-05-25T18:23:44.659Z,102494.81
2023-05-25T18:26:33.091Z,102498.06
2023-05-25T18:29:21.492Z,102502.66
2023-05-25T18:32:09.595Z,102511.50
2023-05-25T18:34:59.168Z,102528.75
2023-05-25T18:37:47.170Z,102519.69
2023-05-25T18:40:35.236Z,102504.16
2023-05-25T18:43:23.312Z,102473.25
2023-05-25T18:46:11.320Z,102450.28
2023-05-25T18:48:59.384Z,102463.88
2023-05-25T18:51:48.961Z,102451.41
2023-05-25T18:54:39.131Z,102437.31
2023-05-25T18:57:28.588Z,102439.88
2023-05-25T19:00:17.339Z,102424.38
2023-05-25T19:03:06.748Z,102402.06
2023-05-25T19:05:54.981Z,102401.25
2023-05-25T19:08:44.488Z,102393.53
2023-05-25T19:11:32.662Z,102367.44
2023-05-25T19:14:20.755Z,102378.63
2023-05-25T19:17:08.970Z,102366.75
2023-05-25T19:19:57.017Z,102349.88
2023-05-25T19:22:45.049Z,102345.19
2023-05-25T19:25:34.504Z,102328.34
2023-05-25T19:28:22.536Z,102316.25
2023-05-25T19:31:10.652Z,102308.19
2023-05-25T19:33:58.818Z,102290.94
2023-05-25T19:36:48.239Z,102283.44
2023-05-25T19:39:41.622Z,102285.81
2023-05-25T19:42:31.061Z,102273.75
2023-05-25T19:45:19.637Z,102265.09
2023-05-25T19:48:07.837Z,102246.38
2023-05-25T19:50:55.906Z,102232.13
2023-05-25T19:53:46.346Z,102224.91
2023-05-25T19:56:34.886Z,102219.47
2023-05-25T19:59:27.817Z,102207.41
2023-05-25T20:02:16.697Z,102196.78
2023-05-25T20:05:05.865Z,102187.91
2023-05-25T20:07:55.989Z,102185.69
2023-05-25T20:10:44.924Z,102173.81
2023-05-25T20:13:33.057Z,102165.22
2023-05-25T20:16:22.575Z,102154.22
2023-05-25T20:19:11.715Z,102147.16
2023-05-25T20:22:01.678Z,102145.50
2023-05-25T20:24:50.171Z,102133.84
2023-05-25T20:27:38.220Z,102132.63
2023-05-25T20:30:26.953Z,102136.56
2023-05-25T20:33:16.897Z,102133.13
2023-05-25T20:36:05.143Z,102121.47
2023-05-25T20:38:53.349Z,102111.28
2023-05-25T20:41:41.406Z,102108.06
2023-05-25T20:44:31.793Z,102092.59
2023-05-25T20:47:19.851Z,102092.19
2023-05-25T20:50:09.647Z,102085.38
2023-05-25T20:52:57.732Z,102085.09
2023-05-25T20:55:47.246Z,102082.66
2023-05-25T20:58:37.365Z,102077.47
2023-05-25T21:01:25.499Z,102074.88
2023-05-25T21:04:13.821Z,102079.81
2023-05-25T21:07:03.196Z,102078.03
2023-05-25T21:09:51.249Z,102064.38
2023-05-25T21:12:39.434Z,102063.00
2023-05-25T21:15:27.432Z,102054.34
2023-05-25T21:18:15.492Z,102061.97
2023-05-25T21:21:04.622Z,102054.53
2023-05-25T21:23:53.974Z,102048.91
2023-05-25T21:26:41.969Z,102044.09
2023-05-25T21:29:30.039Z,102040.97
2023-05-25T21:32:18.068Z,102033.75
2023-05-25T21:35:06.629Z,102036.41
2023-05-25T21:37:54.672Z,102031.16
2023-05-25T21:40:44.009Z,102025.97
2023-05-25T21:43:32.043Z,102016.13
2023-05-25T21:46:20.119Z,102015.88
2023-05-25T21:49:08.113Z,102001.84
2023-05-25T21:51:56.372Z,101996.22
2023-05-25T21:54:44.365Z,101990.03
2023-05-25T21:57:33.784Z,101978.63
2023-05-25T22:00:23.479Z,101975.16
2023-05-25T22:03:12.030Z,101965.03
2023-05-25T22:06:00.132Z,101961.38
2023-05-25T22:08:48.106Z,101954.13
2023-05-25T22:11:36.075Z,101946.91
2023-05-25T22:14:25.467Z,101937.16
2023-05-25T22:17:14.165Z,101938.16
2023-05-25T22:22:53.211Z,101931.47
2023-05-25T22:25:41.380Z,101923.88
2023-05-25T22:28:29.413Z,101917.97
2023-05-25T22:31:18.918Z,101900.22
2023-05-25T22:34:07.353Z,101901.63
2023-05-25T22:36:55.329Z,101902.88
2023-05-25T22:39:43.311Z,101893.84
2023-05-25T22:42:31.318Z,101893.78
2023-05-25T22:45:20.034Z,101881.34
2023-05-25T22:48:09.802Z,101875.91
2023-05-25T22:50:57.822Z,101861.00
2023-05-25T22:53:46.352Z,101856.13
2023-05-25T22:56:36.057Z,101848.50
2023-05-25T22:59:24.106Z,101847.25
2023-05-25T23:02:12.169Z,101837.09
2023-05-25T23:05:01.578Z,101831.47
2023-05-25T23:07:49.754Z,101825.50
2023-05-25T23:10:37.803Z,101821.34
2023-05-25T23:13:27.838Z,101826.72
2023-05-25T23:16:18.812Z,101816.47
2023-05-25T23:19:07.363Z,101811.47
2023-05-25T23:21:58.549Z,101813.78
2023-05-25T23:24:46.530Z,101805.03
2023-05-25T23:27:34.529Z,101803.25
2023-05-25T23:30:22.554Z,101797.94
2023-05-25T23:33:10.699Z,101794.34
2023-05-25T23:35:59.997Z,101786.41
2023-05-25T23:38:49.370Z,101790.31
2023-05-25T23:41:37.416Z,101786.50
2023-05-25T23:44:25.510Z,101793.47
2023-05-25T23:47:13.868Z,101785.59
2023-05-25T23:50:01.930Z,101785.44
2023-05-25T23:52:50.053Z,101776.25
2023-05-25T23:55:39.448Z,101775.69
2023-05-25T23:58:27.586Z,101776.06
